Grand Duke — 3ECP7 — position and weather

sailwx.info

Track history (hours):
 
Tides and Currents Weather Stations Pressure Air Temp Water Temp Dewpoint Dewpoint Depression Visibility Wind Speed Wind Dir Waves Ship Positions

Grand Duke

Last reported at 2017-Sep-18 23:51 UTC. Time now 2017-Sep-19 22:30 UTC.
Position N 25°26' W 079°29'.

Length 199 m; draft 8.2 m.

Type: Cargo ship. MMSI: 371384000.

Date/timePositionNaut miles runAvg speedWind from/ knotsBaromVisibWave heightAir tempDewpointWater temp
2017-Sep-18 23:51N 25°26' W 079°29'1115.4
2017-Sep-18 23:08N 25°37' W 079°28'315.3
2017-Sep-18 22:58N 25°40' W 079°28'1215.1
2017-Sep-18 22:08N 25°52' W 079°27'334 9.7
2017-Sep-17 11:39N 31°08' W 081°32'0 0.0
2017-Sep-17 11:09N 31°08' W 081°32'0 0.0
2017-Sep-17 10:45N 31°08' W 081°32'0 0.0
2017-Sep-17 10:27N 31°08' W 081°32'0 0.0
2017-Sep-17 09:57N 31°08' W 081°32'0 0.0
2017-Sep-17 09:27N 31°08' W 081°32'0 0.0
2017-Sep-17 08:57N 31°08' W 081°32'0 0.0
2017-Sep-17 08:21N 31°08' W 081°32'0 0.0
2017-Sep-17 07:57N 31°08' W 081°32'0 0.0
2017-Sep-17 07:27N 31°08' W 081°32'0 0.0
2017-Sep-17 06:57N 31°08' W 081°32'0 0.0
2017-Sep-17 05:09N 31°08' W 081°32'0 0.0
2017-Sep-17 04:39N 31°08' W 081°32'3 1.0
2017-Sep-17 02:08N 31°07' W 081°29'6 8.8
2017-Sep-17 01:30N 31°07' W 081°23'611.7
2017-Sep-17 01:00N 31°04' W 081°17'19 6.6
2017-Sep-16 22:08N 31°04' W 080°55'2 9.4
2017-Sep-16 21:57N 31°05' W 080°53'5 9.0
2017-Sep-16 21:24N 31°06' W 080°47'4 8.7
2017-Sep-16 20:57N 31°08' W 080°43'3412.3
2017-Sep-16 18:13N 31°20' W 080°06'316.5
2017-Sep-16 18:00N 31°21' W 080°03'816.3
2017-Sep-16 17:30N 31°26' W 079°55'816.7
2017-Sep-16 17:00N 31°31' W 079°47'917.2
2017-Sep-16 16:30N 31°37' W 079°40'916.6
2017-Sep-16 15:57N 31°43' W 079°31'816.7
2017-Sep-16 15:28N 31°48' W 079°24'816.3
2017-Sep-16 14:57N 31°53' W 079°17'916.1
2017-Sep-16 14:24N 31°59' W 079°09'715.8
2017-Sep-16 13:59N 32°03' W 079°02'815.9
2017-Sep-16 13:27N 32°08' W 078°54'1016.4
2017-Sep-16 12:50N 32°15' W 078°46'1017.0
2017-Sep-16 12:16N 32°22' W 078°38'15017.4
2017-Sep-16 03:38N 33°58' W 076°20'215.6
2017-Sep-16 03:30N 33°59' W 076°18'815.2
2017-Sep-16 03:00N 34°04' W 076°11'714.6
2017-Sep-16 02:30N 34°09' W 076°05'714.3
2017-Sep-16 02:00N 34°14' W 075°58'714.2
2017-Sep-16 01:30N 34°19' W 075°52'714.2
2017-Sep-16 01:00N 34°24' W 075°46'714.1
2017-Sep-16 00:30N 34°29' W 075°40'713.9
2017-Sep-15 23:59N 34°34' W 075°33'714.1
2017-Sep-15 23:28N 34°39' W 075°26'914.0
2017-Sep-15 22:51N 34°44' W 075°19'21514.6
2017-Sep-15 08:09N 38°18' W 074°42'316.3
2017-Sep-15 07:56N 38°21' W 074°42'715.5
2017-Sep-15 07:30N 38°27' W 074°45'815.5
2017-Sep-15 07:00N 38°34' W 074°50'611.5
2017-Sep-15 06:30N 38°39' W 074°54'611.4
2017-Sep-15 06:00N 38°43' W 074°58'611.2
2017-Sep-15 05:30N 38°48' W 075°03'5 9.8
2017-Sep-15 05:00N 38°52' W 075°05'713.4
2017-Sep-15 04:30N 38°59' W 075°08'714.9
2017-Sep-15 04:00N 39°06' W 075°12'816.9
2017-Sep-15 03:30N 39°13' W 075°17'918.0
2017-Sep-15 03:01N 39°20' W 075°25'917.9
2017-Sep-15 02:31N 39°26' W 075°32'714.9
2017-Sep-15 02:00N 39°34' W 075°33'611.3
2017-Sep-15 01:30N 39°39' W 075°33'713.6
2017-Sep-15 01:00N 39°46' W 075°29'510.6
2017-Sep-15 00:31N 39°49' W 075°24'611.3
2017-Sep-15 00:01N 39°51' W 075°17'5 9.3
2017-Sep-14 23:30N 39°53' W 075°11'3 5.0
2017-Sep-14 22:58N 39°54' W 075°08'0 0.0
2017-Sep-14 22:28N 39°54' W 075°08'0 0.0
2017-Sep-14 21:55N 39°54' W 075°08'0 0.0
2017-Sep-14 21:28N 39°54' W 075°08'0 0.0
2017-Sep-14 20:58N 39°54' W 075°08'0 0.0
2017-Sep-14 20:28N 39°54' W 075°08'0 0.0
2017-Sep-14 19:58N 39°54' W 075°08'0 0.0
2017-Sep-14 19:28N 39°54' W 075°08'0 0.0
2017-Sep-14 18:58N 39°54' W 075°08'0 0.0
2017-Sep-14 18:28N 39°54' W 075°08'0 0.0
2017-Sep-14 17:58N 39°54' W 075°08'0 0.0
2017-Sep-14 17:25N 39°54' W 075°08'0 0.0
2017-Sep-14 16:58N 39°54' W 075°08'0 0.0
2017-Sep-14 16:28N 39°54' W 075°08'0 0.0
2017-Sep-14 15:58N 39°54' W 075°08'0 0.0
2017-Sep-14 15:28N 39°54' W 075°08'0 0.0
2017-Sep-14 14:58N 39°54' W 075°08'0 0.0
2017-Sep-14 14:28N 39°54' W 075°08'0 0.0
2017-Sep-14 13:58N 39°54' W 075°08'0 0.0
2017-Sep-14 13:28N 39°54' W 075°08'0 0.0
2017-Sep-14 12:58N 39°54' W 075°08'0 0.0
2017-Sep-14 12:28N 39°54' W 075°08'0 0.0
2017-Sep-14 11:58N 39°54' W 075°08'0 0.0
2017-Sep-14 11:28N 39°54' W 075°08'0 0.0
2017-Sep-14 10:58N 39°54' W 075°08'0 0.0
2017-Sep-14 10:28N 39°54' W 075°08'0 0.0
2017-Sep-14 09:58N 39°54' W 075°08'0 0.0
2017-Sep-14 09:28N 39°54' W 075°08'0 0.0
2017-Sep-14 08:58N 39°54' W 075°08'0 0.0
2017-Sep-14 08:28N 39°54' W 075°08'0 0.0
2017-Sep-14 07:58N 39°54' W 075°08'0 0.0
2017-Sep-14 07:28N 39°54' W 075°08'0 0.0
2017-Sep-14 06:58N 39°54' W 075°08'0 0.0
2017-Sep-14 06:28N 39°54' W 075°08'0 0.0
2017-Sep-14 05:58N 39°54' W 075°08'0 0.0
2017-Sep-14 05:28N 39°54' W 075°08'0 0.0
2017-Sep-14 04:58N 39°54' W 075°08'0 0.0
2017-Sep-14 04:28N 39°54' W 075°08'0 0.0
2017-Sep-14 03:58N 39°54' W 075°08'0 0.0
2017-Sep-14 03:25N 39°54' W 075°08'0 0.0
2017-Sep-14 02:58N 39°54' W 075°08'0 0.0
2017-Sep-14 02:25N 39°54' W 075°08'0 0.0
2017-Sep-14 01:58N 39°54' W 075°08'1 1.6
2017-Sep-14 01:30N 39°53' W 075°08'4 7.8
2017-Sep-14 01:00N 39°52' W 075°13'4 8.8
2017-Sep-14 00:30N 39°51' W 075°18'510.5
2017-Sep-14 00:01N 39°48' W 075°24'510.3
2017-Sep-13 23:30N 39°45' W 075°29'612.3
2017-Sep-13 23:00N 39°39' W 075°33'611.1
2017-Sep-13 22:31N 39°34' W 075°33'713.0
2017-Sep-13 22:01N 39°27' W 075°34'714.9
2017-Sep-13 21:31N 39°22' W 075°27'816.0
2017-Sep-13 21:00N 39°16' W 075°20'815.9
2017-Sep-13 20:31N 39°09' W 075°15'815.9
2017-Sep-13 20:00N 39°02' W 075°10'816.1
2017-Sep-13 19:31N 38°55' W 075°05'714.3
2017-Sep-13 19:00N 38°48' W 075°03'4 7.4
2017-Sep-13 18:30N 38°46' W 074°59'4 7.3
2017-Sep-13 18:00N 38°43' W 074°55'510.1
2017-Sep-13 17:30N 38°39' W 074°51'510.3
2017-Sep-13 17:00N 38°35' W 074°47'510.2
2017-Sep-13 16:30N 38°31' W 074°43'34 8.5
2017-Sep-13 12:29N 38°05' W 074°16'0 0.8
2017-Sep-13 11:57N 38°05' W 074°15'0 0.6
2017-Sep-13 11:30N 38°05' W 074°15'0 0.6
2017-Sep-13 10:59N 38°05' W 074°14'0 0.5
2017-Sep-13 10:31N 38°05' W 074°14'0 0.4
2017-Sep-13 10:00N 38°05' W 074°14'0 0.4
2017-Sep-13 09:30N 38°05' W 074°14'0 0.2
2017-Sep-13 09:01N 38°05' W 074°13'0 0.1
2017-Sep-13 08:30N 38°05' W 074°13'0 0.0
2017-Sep-13 07:59N 38°05' W 074°13'0 0.1
2017-Sep-13 07:30N 38°05' W 074°13'0 0.2
2017-Sep-13 07:00N 38°05' W 074°13'0 0.4
2017-Sep-13 06:30N 38°05' W 074°13'0 0.5
2017-Sep-13 06:01N 38°05' W 074°13'0 0.6
2017-Sep-13 05:30N 38°05' W 074°12'0 0.8
2017-Sep-13 05:00N 38°05' W 074°12'1 1.1
2017-Sep-13 04:31N 38°05' W 074°11'1 1.2
2017-Sep-13 04:00N 38°05' W 074°10'1 1.2
2017-Sep-13 03:30N 38°04' W 074°10'1 1.2
2017-Sep-13 03:00N 38°05' W 074°09'1 1.2
2017-Sep-13 02:30N 38°05' W 074°08'1 1.2
2017-Sep-13 02:00N 38°05' W 074°07'1 1.3
2017-Sep-13 01:31N 38°05' W 074°07'1 1.2
2017-Sep-13 01:01N 38°05' W 074°06'0 0.9
2017-Sep-13 00:31N 38°05' W 074°05'0 0.7
2017-Sep-13 00:00N 38°05' W 074°05'0 0.8
2017-Sep-12 23:30N 38°05' W 074°04'0 0.8
2017-Sep-12 23:00N 38°05' W 074°04'0 0.6
2017-Sep-12 22:31N 38°05' W 074°03'0 0.3
2017-Sep-12 22:00N 38°05' W 074°03'0 0.3
2017-Sep-12 21:31N 38°05' W 074°03'0 0.4
2017-Sep-12 21:00N 38°05' W 074°03'0 0.3
2017-Sep-12 20:30N 38°05' W 074°03'0 0.4
2017-Sep-12 20:00N 38°05' W 074°02'0 0.2
2017-Sep-12 19:29N 38°04' W 074°02'0 0.6
2017-Sep-12 19:00N 38°04' W 074°02'0 0.7
2017-Sep-12 18:31N 38°04' W 074°02'0 0.6
2017-Sep-12 18:00N 38°04' W 074°02'0 0.6
2017-Sep-12 17:30N 38°03' W 074°02'0 0.6
2017-Sep-12 17:00N 38°03' W 074°02'0 0.6
2017-Sep-12 16:30N 38°03' W 074°01'0 0.7
2017-Sep-12 16:00N 38°03' W 074°01'0 0.8
2017-Sep-12 15:30N 38°03' W 074°00'0 0.7
2017-Sep-12 15:00N 38°02' W 074°00'0 0.7
2017-Sep-12 14:29N 38°02' W 073°60'0 0.7
2017-Sep-12 14:00N 38°02' W 073°60'0 0.5
2017-Sep-12 13:30N 38°01' W 073°60'0 0.6
2017-Sep-12 13:01N 38°01' W 073°59'0 0.5
2017-Sep-12 12:30N 38°01' W 073°59'0 0.5
2017-Sep-12 11:57N 38°01' W 073°59'1 0.5
2017-Sep-12 09:15N 37°60' W 073°58'0 0.5
2017-Sep-12 09:01N 37°60' W 073°58'0 0.4
2017-Sep-12 08:31N 37°60' W 073°58'0 0.6
2017-Sep-12 08:01N 37°59' W 073°57'0 0.7
2017-Sep-12 07:31N 37°59' W 073°57'0 0.7
2017-Sep-12 07:01N 37°59' W 073°57'0 0.6
2017-Sep-12 06:31N 37°59' W 073°56'0 0.6
2017-Sep-12 06:01N 37°59' W 073°56'0 0.6
2017-Sep-12 05:28N 37°58' W 073°56'0 0.5
2017-Sep-12 04:58N 37°58' W 073°55'0 1.0
2017-Sep-12 04:30N 37°58' W 073°55'5 9.4
2017-Sep-12 04:00N 37°55' W 073°51'915.9
2017-Sep-12 03:28N 37°50' W 073°42'1015.7
2017-Sep-12 02:51N 37°45' W 073°31'915.7
2017-Sep-12 02:17N 37°40' W 073°22'816.0
2017-Sep-12 01:49N 37°35' W 073°15'516.2
2017-Sep-12 01:30N 37°31' W 073°10'  
Track history (hours):
 
Tides and Currents Weather Stations Pressure Air Temp Water Temp Dewpoint Dewpoint Depression Visibility Wind Speed Wind Dir Waves Ship Positions

Grand Duke

Last reported at 2017-Sep-18 23:51 UTC. Time now 2017-Sep-19 22:30 UTC.
Position N 25°26' W 079°29'.

Length 199 m; draft 8.2 m.

Type: Cargo ship. MMSI: 371384000.

Date/timePositionNaut miles runAvg speedWind from/ knotsBaromVisibWave heightAir tempDewpointWater temp
2017-Sep-18 23:51N 25°26' W 079°29'1115.4
2017-Sep-18 23:08N 25°37' W 079°28'315.3
2017-Sep-18 22:58N 25°40' W 079°28'1215.1
2017-Sep-18 22:08N 25°52' W 079°27'334 9.7
2017-Sep-17 11:39N 31°08' W 081°32'0 0.0
2017-Sep-17 11:09N 31°08' W 081°32'0 0.0
2017-Sep-17 10:45N 31°08' W 081°32'0 0.0
2017-Sep-17 10:27N 31°08' W 081°32'0 0.0
2017-Sep-17 09:57N 31°08' W 081°32'0 0.0
2017-Sep-17 09:27N 31°08' W 081°32'0 0.0
2017-Sep-17 08:57N 31°08' W 081°32'0 0.0
2017-Sep-17 08:21N 31°08' W 081°32'0 0.0
2017-Sep-17 07:57N 31°08' W 081°32'0 0.0
2017-Sep-17 07:27N 31°08' W 081°32'0 0.0
2017-Sep-17 06:57N 31°08' W 081°32'0 0.0
2017-Sep-17 05:09N 31°08' W 081°32'0 0.0
2017-Sep-17 04:39N 31°08' W 081°32'3 1.0
2017-Sep-17 02:08N 31°07' W 081°29'6 8.8
2017-Sep-17 01:30N 31°07' W 081°23'611.7
2017-Sep-17 01:00N 31°04' W 081°17'19 6.6
2017-Sep-16 22:08N 31°04' W 080°55'2 9.4
2017-Sep-16 21:57N 31°05' W 080°53'5 9.0
2017-Sep-16 21:24N 31°06' W 080°47'4 8.7
2017-Sep-16 20:57N 31°08' W 080°43'3412.3
2017-Sep-16 18:13N 31°20' W 080°06'316.5
2017-Sep-16 18:00N 31°21' W 080°03'816.3
2017-Sep-16 17:30N 31°26' W 079°55'816.7
2017-Sep-16 17:00N 31°31' W 079°47'917.2
2017-Sep-16 16:30N 31°37' W 079°40'916.6
2017-Sep-16 15:57N 31°43' W 079°31'816.7
2017-Sep-16 15:28N 31°48' W 079°24'816.3
2017-Sep-16 14:57N 31°53' W 079°17'916.1
2017-Sep-16 14:24N 31°59' W 079°09'715.8
2017-Sep-16 13:59N 32°03' W 079°02'815.9
2017-Sep-16 13:27N 32°08' W 078°54'1016.4
2017-Sep-16 12:50N 32°15' W 078°46'1017.0
2017-Sep-16 12:16N 32°22' W 078°38'15017.4
2017-Sep-16 03:38N 33°58' W 076°20'215.6
2017-Sep-16 03:30N 33°59' W 076°18'815.2
2017-Sep-16 03:00N 34°04' W 076°11'714.6
2017-Sep-16 02:30N 34°09' W 076°05'714.3
2017-Sep-16 02:00N 34°14' W 075°58'714.2
2017-Sep-16 01:30N 34°19' W 075°52'714.2
2017-Sep-16 01:00N 34°24' W 075°46'714.1
2017-Sep-16 00:30N 34°29' W 075°40'713.9
2017-Sep-15 23:59N 34°34' W 075°33'714.1
2017-Sep-15 23:28N 34°39' W 075°26'914.0
2017-Sep-15 22:51N 34°44' W 075°19'21514.6
2017-Sep-15 08:09N 38°18' W 074°42'316.3
2017-Sep-15 07:56N 38°21' W 074°42'715.5
2017-Sep-15 07:30N 38°27' W 074°45'815.5
2017-Sep-15 07:00N 38°34' W 074°50'611.5
2017-Sep-15 06:30N 38°39' W 074°54'611.4
2017-Sep-15 06:00N 38°43' W 074°58'611.2
2017-Sep-15 05:30N 38°48' W 075°03'5 9.8
2017-Sep-15 05:00N 38°52' W 075°05'713.4
2017-Sep-15 04:30N 38°59' W 075°08'714.9
2017-Sep-15 04:00N 39°06' W 075°12'816.9
2017-Sep-15 03:30N 39°13' W 075°17'918.0
2017-Sep-15 03:01N 39°20' W 075°25'917.9
2017-Sep-15 02:31N 39°26' W 075°32'714.9
2017-Sep-15 02:00N 39°34' W 075°33'611.3
2017-Sep-15 01:30N 39°39' W 075°33'713.6
2017-Sep-15 01:00N 39°46' W 075°29'510.6
2017-Sep-15 00:31N 39°49' W 075°24'611.3
2017-Sep-15 00:01N 39°51' W 075°17'5 9.3
2017-Sep-14 23:30N 39°53' W 075°11'3 5.0
2017-Sep-14 22:58N 39°54' W 075°08'0 0.0
2017-Sep-14 22:28N 39°54' W 075°08'0 0.0
2017-Sep-14 21:55N 39°54' W 075°08'0 0.0
2017-Sep-14 21:28N 39°54' W 075°08'0 0.0
2017-Sep-14 20:58N 39°54' W 075°08'0 0.0
2017-Sep-14 20:28N 39°54' W 075°08'0 0.0
2017-Sep-14 19:58N 39°54' W 075°08'0 0.0
2017-Sep-14 19:28N 39°54' W 075°08'0 0.0
2017-Sep-14 18:58N 39°54' W 075°08'0 0.0
2017-Sep-14 18:28N 39°54' W 075°08'0 0.0
2017-Sep-14 17:58N 39°54' W 075°08'0 0.0
2017-Sep-14 17:25N 39°54' W 075°08'0 0.0
2017-Sep-14 16:58N 39°54' W 075°08'0 0.0
2017-Sep-14 16:28N 39°54' W 075°08'0 0.0
2017-Sep-14 15:58N 39°54' W 075°08'0 0.0
2017-Sep-14 15:28N 39°54' W 075°08'0 0.0
2017-Sep-14 14:58N 39°54' W 075°08'0 0.0
2017-Sep-14 14:28N 39°54' W 075°08'0 0.0
2017-Sep-14 13:58N 39°54' W 075°08'0 0.0
2017-Sep-14 13:28N 39°54' W 075°08'0 0.0
2017-Sep-14 12:58N 39°54' W 075°08'0 0.0
2017-Sep-14 12:28N 39°54' W 075°08'0 0.0
2017-Sep-14 11:58N 39°54' W 075°08'0 0.0
2017-Sep-14 11:28N 39°54' W 075°08'0 0.0
2017-Sep-14 10:58N 39°54' W 075°08'0 0.0
2017-Sep-14 10:28N 39°54' W 075°08'0 0.0
2017-Sep-14 09:58N 39°54' W 075°08'0 0.0
2017-Sep-14 09:28N 39°54' W 075°08'0 0.0
2017-Sep-14 08:58N 39°54' W 075°08'0 0.0
2017-Sep-14 08:28N 39°54' W 075°08'0 0.0
2017-Sep-14 07:58N 39°54' W 075°08'0 0.0
2017-Sep-14 07:28N 39°54' W 075°08'0 0.0
2017-Sep-14 06:58N 39°54' W 075°08'0 0.0
2017-Sep-14 06:28N 39°54' W 075°08'0 0.0
2017-Sep-14 05:58N 39°54' W 075°08'0 0.0
2017-Sep-14 05:28N 39°54' W 075°08'0 0.0
2017-Sep-14 04:58N 39°54' W 075°08'0 0.0
2017-Sep-14 04:28N 39°54' W 075°08'0 0.0
2017-Sep-14 03:58N 39°54' W 075°08'0 0.0
2017-Sep-14 03:25N 39°54' W 075°08'0 0.0
2017-Sep-14 02:58N 39°54' W 075°08'0 0.0
2017-Sep-14 02:25N 39°54' W 075°08'0 0.0
2017-Sep-14 01:58N 39°54' W 075°08'1 1.6
2017-Sep-14 01:30N 39°53' W 075°08'4 7.8
2017-Sep-14 01:00N 39°52' W 075°13'4 8.8
2017-Sep-14 00:30N 39°51' W 075°18'510.5
2017-Sep-14 00:01N 39°48' W 075°24'510.3
2017-Sep-13 23:30N 39°45' W 075°29'612.3
2017-Sep-13 23:00N 39°39' W 075°33'611.1
2017-Sep-13 22:31N 39°34' W 075°33'713.0
2017-Sep-13 22:01N 39°27' W 075°34'714.9
2017-Sep-13 21:31N 39°22' W 075°27'816.0
2017-Sep-13 21:00N 39°16' W 075°20'815.9
2017-Sep-13 20:31N 39°09' W 075°15'815.9
2017-Sep-13 20:00N 39°02' W 075°10'816.1
2017-Sep-13 19:31N 38°55' W 075°05'714.3
2017-Sep-13 19:00N 38°48' W 075°03'4 7.4
2017-Sep-13 18:30N 38°46' W 074°59'4 7.3
2017-Sep-13 18:00N 38°43' W 074°55'510.1
2017-Sep-13 17:30N 38°39' W 074°51'510.3
2017-Sep-13 17:00N 38°35' W 074°47'510.2
2017-Sep-13 16:30N 38°31' W 074°43'34 8.5
2017-Sep-13 12:29N 38°05' W 074°16'0 0.8
2017-Sep-13 11:57N 38°05' W 074°15'0 0.6
2017-Sep-13 11:30N 38°05' W 074°15'0 0.6
2017-Sep-13 10:59N 38°05' W 074°14'0 0.5
2017-Sep-13 10:31N 38°05' W 074°14'0 0.4
2017-Sep-13 10:00N 38°05' W 074°14'0 0.4
2017-Sep-13 09:30N 38°05' W 074°14'0 0.2
2017-Sep-13 09:01N 38°05' W 074°13'0 0.1
2017-Sep-13 08:30N 38°05' W 074°13'0 0.0
2017-Sep-13 07:59N 38°05' W 074°13'0 0.1
2017-Sep-13 07:30N 38°05' W 074°13'0 0.2
2017-Sep-13 07:00N 38°05' W 074°13'0 0.4
2017-Sep-13 06:30N 38°05' W 074°13'0 0.5
2017-Sep-13 06:01N 38°05' W 074°13'0 0.6
2017-Sep-13 05:30N 38°05' W 074°12'0 0.8
2017-Sep-13 05:00N 38°05' W 074°12'1 1.1
2017-Sep-13 04:31N 38°05' W 074°11'1 1.2
2017-Sep-13 04:00N 38°05' W 074°10'1 1.2
2017-Sep-13 03:30N 38°04' W 074°10'1 1.2
2017-Sep-13 03:00N 38°05' W 074°09'1 1.2
2017-Sep-13 02:30N 38°05' W 074°08'1 1.2
2017-Sep-13 02:00N 38°05' W 074°07'1 1.3
2017-Sep-13 01:31N 38°05' W 074°07'1 1.2
2017-Sep-13 01:01N 38°05' W 074°06'0 0.9
2017-Sep-13 00:31N 38°05' W 074°05'0 0.7
2017-Sep-13 00:00N 38°05' W 074°05'0 0.8
2017-Sep-12 23:30N 38°05' W 074°04'0 0.8
2017-Sep-12 23:00N 38°05' W 074°04'0 0.6
2017-Sep-12 22:31N 38°05' W 074°03'0 0.3
2017-Sep-12 22:00N 38°05' W 074°03'0 0.3
2017-Sep-12 21:31N 38°05' W 074°03'0 0.4
2017-Sep-12 21:00N 38°05' W 074°03'0 0.3
2017-Sep-12 20:30N 38°05' W 074°03'0 0.4
2017-Sep-12 20:00N 38°05' W 074°02'0 0.2
2017-Sep-12 19:29N 38°04' W 074°02'0 0.6
2017-Sep-12 19:00N 38°04' W 074°02'0 0.7
2017-Sep-12 18:31N 38°04' W 074°02'0 0.6
2017-Sep-12 18:00N 38°04' W 074°02'0 0.6
2017-Sep-12 17:30N 38°03' W 074°02'0 0.6
2017-Sep-12 17:00N 38°03' W 074°02'0 0.6
2017-Sep-12 16:30N 38°03' W 074°01'0 0.7
2017-Sep-12 16:00N 38°03' W 074°01'0 0.8
2017-Sep-12 15:30N 38°03' W 074°00'0 0.7
2017-Sep-12 15:00N 38°02' W 074°00'0 0.7
2017-Sep-12 14:29N 38°02' W 073°60'0 0.7
2017-Sep-12 14:00N 38°02' W 073°60'0 0.5
2017-Sep-12 13:30N 38°01' W 073°60'0 0.6
2017-Sep-12 13:01N 38°01' W 073°59'0 0.5
2017-Sep-12 12:30N 38°01' W 073°59'0 0.5
2017-Sep-12 11:57N 38°01' W 073°59'1 0.5
2017-Sep-12 09:15N 37°60' W 073°58'0 0.5
2017-Sep-12 09:01N 37°60' W 073°58'0 0.4
2017-Sep-12 08:31N 37°60' W 073°58'0 0.6
2017-Sep-12 08:01N 37°59' W 073°57'0 0.7
2017-Sep-12 07:31N 37°59' W 073°57'0 0.7
2017-Sep-12 07:01N 37°59' W 073°57'0 0.6
2017-Sep-12 06:31N 37°59' W 073°56'0 0.6
2017-Sep-12 06:01N 37°59' W 073°56'0 0.6
2017-Sep-12 05:28N 37°58' W 073°56'0 0.5
2017-Sep-12 04:58N 37°58' W 073°55'0 1.0
2017-Sep-12 04:30N 37°58' W 073°55'5 9.4
2017-Sep-12 04:00N 37°55' W 073°51'915.9
2017-Sep-12 03:28N 37°50' W 073°42'1015.7
2017-Sep-12 02:51N 37°45' W 073°31'915.7
2017-Sep-12 02:17N 37°40' W 073°22'816.0
2017-Sep-12 01:49N 37°35' W 073°15'516.2
2017-Sep-12 01:30N 37°31' W 073°10'  

Dump ship's entire track history